createdAt,value
2018-10-21T00:00:14.465Z,101300.91
2018-10-21T00:02:45.386Z,101361.99
2018-10-21T00:05:16.090Z,101364.05
2018-10-21T00:07:47.662Z,101358.75
2018-10-21T00:10:18.264Z,101358.39
2018-10-21T00:12:49.330Z,101358.39
2018-10-21T00:15:20.133Z,101353.47
2018-10-21T00:17:51.384Z,101353.83
2018-10-21T00:20:21.290Z,101348.91
2018-10-21T00:22:52.121Z,101354.69
2018-10-21T00:25:22.345Z,101349.99
2018-10-21T00:27:53.564Z,101353.33
2018-10-21T00:30:24.229Z,101346.72
2018-10-21T00:32:55.116Z,101347.31
2018-10-21T00:35:26.173Z,101343.20
2018-10-21T00:37:56.994Z,101352.33
2018-10-21T00:40:28.770Z,101347.53
2018-10-21T00:42:59.250Z,101351.86
2018-10-21T00:45:30.212Z,101350.64
2018-10-21T00:48:01.285Z,101349.55
2018-10-21T00:50:32.277Z,101354.73
2018-10-21T00:53:02.987Z,101350.13
2018-10-21T00:55:34.265Z,101352.55
2018-10-21T00:58:05.030Z,101346.40
2018-10-21T01:00:36.342Z,101345.67
2018-10-21T01:03:07.531Z,101345.06
2018-10-21T01:05:38.354Z,101345.30
2018-10-21T01:08:09.073Z,101344.34
2018-10-21T01:10:40.722Z,101346.77
2018-10-21T01:13:11.165Z,101343.06
2018-10-21T01:15:48.266Z,101340.42
2018-10-21T01:18:18.098Z,101343.89
2018-10-21T01:20:47.902Z,101350.77
2018-10-21T01:23:17.845Z,101347.63
2018-10-21T01:25:48.229Z,101332.81
2018-10-21T01:28:18.292Z,101347.40
2018-10-21T01:30:48.435Z,101350.04
2018-10-21T01:33:19.078Z,101352.69
2018-10-21T01:35:50.694Z,101348.08
2018-10-21T01:38:21.260Z,101349.05
2018-10-21T01:41:01.160Z,101346.77
2018-10-21T01:43:32.253Z,101352.77
2018-10-21T01:46:02.847Z,101353.23
2018-10-21T01:48:33.558Z,101357.10
2018-10-21T01:51:03.731Z,101348.58
2018-10-21T01:53:33.776Z,101356.02
2018-10-21T01:56:03.825Z,101354.70
2018-10-21T01:58:33.812Z,101350.49
2018-10-21T02:01:03.779Z,101352.50
2018-10-21T02:03:33.677Z,101353.00
2018-10-21T02:06:03.931Z,101354.69
2018-10-21T02:08:34.286Z,101363.44
2018-10-21T02:11:04.197Z,101366.31
2018-10-21T02:13:35.119Z,101360.66
2018-10-21T02:16:06.102Z,101365.07
2018-10-21T02:18:37.386Z,101366.39
2018-10-21T02:21:08.150Z,101361.84
2018-10-21T02:23:39.121Z,101355.08
2018-10-21T02:26:10.065Z,101367.25
2018-10-21T02:28:41.281Z,101372.41
2018-10-21T02:31:11.611Z,101377.11
2018-10-21T02:33:42.241Z,101381.44
2018-10-21T02:36:13.029Z,101379.16
2018-10-21T02:38:44.215Z,101391.42
2018-10-21T02:41:27.181Z,101384.81
2018-10-21T02:43:57.081Z,101387.00
2018-10-21T02:46:27.107Z,101380.48
2018-10-21T02:49:04.518Z,101381.34
2018-10-21T02:51:34.601Z,101380.98
2018-10-21T02:54:04.742Z,101388.05
2018-10-21T02:56:34.614Z,101390.41
2018-10-21T02:59:04.606Z,101395.18
2018-10-21T03:01:34.470Z,101384.19
2018-10-21T03:04:04.887Z,101392.88
2018-10-21T03:06:34.729Z,101371.77
2018-10-21T03:09:06.196Z,101382.48
2018-10-21T03:11:35.928Z,101381.90
2018-10-21T03:14:05.991Z,101383.22
2018-10-21T03:16:36.246Z,101386.23
2018-10-21T03:19:06.123Z,101393.57
2018-10-21T03:21:36.003Z,101392.25
2018-10-21T03:24:05.862Z,101400.91
2018-10-21T03:26:35.811Z,101399.58
2018-10-21T03:29:06.353Z,101396.09
2018-10-21T03:31:36.166Z,101400.81
2018-10-21T03:34:06.780Z,101402.59
2018-10-21T03:36:37.443Z,101404.19
2018-10-21T03:39:10.350Z,101401.05
2018-10-21T03:41:40.986Z,101405.02
2018-10-21T03:44:10.918Z,101400.47
2018-10-21T03:46:41.600Z,101406.34
2018-10-21T03:49:12.226Z,101384.61
2018-10-21T03:51:43.205Z,101407.66
2018-10-21T03:54:14.096Z,101411.26
2018-10-21T03:56:45.647Z,101411.75
2018-10-21T03:59:17.175Z,101411.62
2018-10-21T04:01:47.450Z,101411.16
2018-10-21T04:04:18.209Z,101406.34
2018-10-21T04:06:49.193Z,101410.43
2018-10-21T04:09:20.072Z,101418.73
2018-10-21T04:11:51.481Z,101417.77
2018-10-21T04:14:22.000Z,101418.14
2018-10-21T04:16:53.472Z,101421.61
2018-10-21T04:19:23.940Z,101421.52
2018-10-21T04:22:03.417Z,101417.64
2018-10-21T04:24:33.678Z,101422.47
2018-10-21T04:27:03.634Z,101425.57
2018-10-21T04:29:33.645Z,101420.41
2018-10-21T04:32:03.639Z,101422.09
2018-10-21T04:34:33.662Z,101420.88
2018-10-21T04:37:14.033Z,101416.17
2018-10-21T04:39:54.430Z,101409.66
2018-10-21T04:42:24.621Z,101404.02
2018-10-21T04:44:54.653Z,101402.45
2018-10-21T04:47:24.585Z,101406.14
2018-10-21T04:49:54.878Z,101407.59
2018-10-21T04:52:24.883Z,101405.04
2018-10-21T04:54:54.764Z,101404.67
2018-10-21T04:57:24.753Z,101407.89
2018-10-21T04:59:54.642Z,101407.53
2018-10-21T05:02:24.964Z,101409.34
2018-10-21T05:04:54.860Z,101415.58
2018-10-21T05:07:24.781Z,101413.40
2018-10-21T05:09:54.716Z,101412.66
2018-10-21T05:12:24.497Z,101421.69
2018-10-21T05:14:54.489Z,101420.28
2018-10-21T05:17:24.729Z,101423.29
2018-10-21T05:19:54.649Z,101419.47
2018-10-21T05:22:24.823Z,101421.53
2018-10-21T05:24:54.706Z,101422.12
2018-10-21T05:27:25.221Z,101430.50
2018-10-21T05:29:55.298Z,101435.91
2018-10-21T05:32:25.262Z,101429.41
2018-10-21T05:34:55.254Z,101432.91
2018-10-21T05:37:25.119Z,101434.91
2018-10-21T05:39:54.990Z,101436.35
2018-10-21T05:42:24.888Z,101440.03
2018-10-21T05:44:55.361Z,101448.55
2018-10-21T05:47:26.608Z,101445.30
2018-10-21T05:49:57.126Z,101449.25
2018-10-21T05:52:28.250Z,101458.13
2018-10-21T05:54:59.134Z,101460.86
2018-10-21T05:57:31.081Z,101461.36
2018-10-21T06:00:01.228Z,101467.09
2018-10-21T06:02:32.001Z,101469.86
2018-10-21T06:05:03.253Z,101476.19
2018-10-21T06:07:33.101Z,101476.19
2018-10-21T06:10:05.941Z,101480.52
2018-10-21T06:12:36.085Z,101485.71
2018-10-21T06:15:09.355Z,101491.77
2018-10-21T06:17:39.459Z,101496.84
2018-10-21T06:21:18.190Z,101484.75
2018-10-21T06:23:48.082Z,101499.07
2018-10-21T06:26:17.970Z,101495.91
2018-10-21T06:28:47.870Z,101500.67
2018-10-21T06:31:17.889Z,101506.91
2018-10-21T06:33:47.814Z,101507.28
2018-10-21T06:36:17.789Z,101513.80
2018-10-21T06:38:47.588Z,101516.91
2018-10-21T06:41:17.850Z,101514.17
2018-10-21T06:43:47.708Z,101520.66
2018-10-21T06:46:18.506Z,101527.26
2018-10-21T06:48:48.677Z,101526.30
2018-10-21T06:51:18.519Z,101529.69
2018-10-21T06:53:48.575Z,101529.97
2018-10-21T06:56:20.231Z,101534.76
2018-10-21T06:58:50.520Z,101535.48
2018-10-21T07:01:20.516Z,101544.53
2018-10-21T07:03:50.599Z,101537.45
2018-10-21T07:06:22.594Z,101548.03
2018-10-21T07:08:53.646Z,101552.24
2018-10-21T07:11:23.508Z,101545.11
2018-10-21T07:13:53.436Z,101553.34
2018-10-21T07:16:23.822Z,101554.82
2018-10-21T07:18:54.594Z,101551.87
2018-10-21T07:21:24.657Z,101554.17
2018-10-21T07:23:54.731Z,101544.17
2018-10-21T07:26:24.692Z,101553.14
2018-10-21T07:28:54.648Z,101553.29
2018-10-21T07:31:24.688Z,101556.23
2018-10-21T07:33:54.579Z,101556.41
2018-10-21T07:36:24.620Z,101558.52
2018-10-21T07:38:54.514Z,101568.28
2018-10-21T07:41:24.837Z,101562.27
2018-10-21T07:43:54.598Z,101569.63
2018-10-21T07:46:24.464Z,101570.85
2018-10-21T07:48:54.513Z,101571.36
2018-10-21T07:51:24.480Z,101572.37
2018-10-21T07:53:54.579Z,101579.94
2018-10-21T07:56:24.552Z,101584.18
2018-10-21T07:58:54.498Z,101579.89
2018-10-21T08:01:24.810Z,101586.19
2018-10-21T08:03:54.752Z,101596.53
2018-10-21T08:06:36.658Z,101570.05
2018-10-21T08:09:11.766Z,101599.88
2018-10-21T08:11:41.672Z,101596.09
2018-10-21T08:14:13.459Z,101590.41
2018-10-21T08:16:43.631Z,101593.84
2018-10-21T08:19:13.494Z,101604.23
2018-10-21T08:21:43.558Z,101605.35
2018-10-21T08:24:13.481Z,101606.16
2018-10-21T08:26:43.601Z,101606.67
2018-10-21T08:29:20.497Z,101613.12
2018-10-21T08:31:50.702Z,101594.94
2018-10-21T08:34:21.096Z,101615.61
2018-10-21T08:36:50.822Z,101614.80
2018-10-21T08:39:20.574Z,101623.37
2018-10-21T08:41:50.514Z,101618.81
2018-10-21T08:44:21.001Z,101619.72
2018-10-21T08:46:51.017Z,101626.77
2018-10-21T08:49:20.827Z,101619.13
2018-10-21T08:51:50.853Z,101623.63
2018-10-21T08:54:20.669Z,101626.69
2018-10-21T08:56:50.770Z,101624.95
2018-10-21T08:59:20.833Z,101622.13
2018-10-21T09:01:50.529Z,101633.61
2018-10-21T09:04:20.484Z,101633.48
2018-10-21T09:06:50.671Z,101627.51
2018-10-21T09:09:20.569Z,101619.36
2018-10-21T09:11:50.633Z,101625.06
2018-10-21T09:14:20.710Z,101629.91
2018-10-21T09:16:50.579Z,101635.20
2018-10-21T09:19:20.621Z,101638.00
2018-10-21T09:21:50.473Z,101633.87
2018-10-21T09:24:20.721Z,101637.63
2018-10-21T09:26:50.917Z,101635.72
2018-10-21T09:29:20.754Z,101638.69
2018-10-21T09:31:50.729Z,101631.19
2018-10-21T09:34:20.626Z,101629.70
2018-10-21T09:36:50.741Z,101628.22
2018-10-21T09:39:20.713Z,101629.23
2018-10-21T09:41:55.885Z,101628.19
2018-10-21T09:44:25.713Z,101630.75
2018-10-21T09:47:01.401Z,101630.16
2018-10-21T09:49:31.507Z,101626.45
2018-10-21T09:52:01.976Z,101610.09
2018-10-21T09:54:31.736Z,101614.20
2018-10-21T09:57:02.337Z,101614.20
2018-10-21T09:59:32.369Z,101613.47
2018-10-21T10:02:07.590Z,101613.70
2018-10-21T10:04:42.526Z,101610.00
2018-10-21T10:07:12.658Z,101612.74
2018-10-21T10:09:42.601Z,101621.92
2018-10-21T10:12:13.509Z,101621.62
2018-10-21T10:14:44.294Z,101627.41
2018-10-21T10:17:15.635Z,101616.13
2018-10-21T10:19:47.234Z,101609.89
2018-10-21T10:22:18.956Z,101615.36
2018-10-21T10:24:48.706Z,101615.74
2018-10-21T10:27:24.718Z,101613.45
2018-10-21T10:29:54.553Z,101607.81
2018-10-21T10:32:24.698Z,101611.41
2018-10-21T10:34:54.594Z,101607.82
2018-10-21T10:37:24.616Z,101614.47
2018-10-21T10:39:56.352Z,101611.34
2018-10-21T10:42:27.347Z,101610.63
2018-10-21T10:44:57.662Z,101606.16
2018-10-21T10:47:27.594Z,101604.48
2018-10-21T10:50:01.453Z,101598.58
2018-10-21T10:52:31.588Z,101611.23
2018-10-21T10:55:07.431Z,101607.61
2018-10-21T10:57:42.736Z,101608.83
2018-10-21T11:02:49.821Z,101615.10
2018-10-21T11:05:19.839Z,101611.08
2018-10-21T11:07:49.586Z,101610.83
2018-10-21T11:10:19.624Z,101610.80
2018-10-21T11:12:51.346Z,101606.45
2018-10-21T11:15:23.022Z,101611.29
2018-10-21T11:17:53.190Z,101614.96
2018-10-21T11:20:24.342Z,101626.42
2018-10-21T11:22:56.294Z,101633.42
2018-10-21T11:25:28.382Z,101627.61
2018-10-21T11:27:59.750Z,101624.84
2018-10-21T11:30:29.998Z,101621.44
2018-10-21T11:33:00.750Z,101616.37
2018-10-21T11:35:31.412Z,101615.27
2018-10-21T11:38:02.473Z,101615.03
2018-10-21T11:40:32.607Z,101608.85
2018-10-21T11:43:03.473Z,101612.08
2018-10-21T11:45:35.284Z,101604.22
2018-10-21T11:48:11.657Z,101606.23
2018-10-21T11:50:41.854Z,101607.77
2018-10-21T11:53:11.875Z,101604.83
2018-10-21T11:55:42.934Z,101602.08
2018-10-21T11:58:14.544Z,101611.47
2018-10-21T12:00:46.585Z,101613.22
2018-10-21T12:03:17.387Z,101599.57
2018-10-21T12:05:47.572Z,101602.73
2018-10-21T12:08:18.105Z,101599.58
2018-10-21T12:10:47.916Z,101597.61
2018-10-21T12:13:17.804Z,101597.11
2018-10-21T12:15:47.703Z,101596.88
2018-10-21T12:18:26.659Z,101592.42
2018-10-21T12:21:00.910Z,101597.80
2018-10-21T12:23:30.899Z,101597.87
2018-10-21T12:26:00.922Z,101594.23
2018-10-21T12:28:30.851Z,101586.02
2018-10-21T12:31:00.725Z,101584.92
2018-10-21T12:33:38.083Z,101565.83
2018-10-21T12:36:09.121Z,101586.36
2018-10-21T12:38:40.025Z,101579.59
2018-10-21T12:41:11.138Z,101575.48
2018-10-21T12:43:41.953Z,101574.67
2018-10-21T12:46:12.087Z,101574.27
2018-10-21T12:48:48.765Z,101566.98
2018-10-21T12:51:18.853Z,101571.63
2018-10-21T12:53:48.658Z,101568.56
2018-10-21T12:56:18.656Z,101562.06
2018-10-21T12:58:59.918Z,101563.17
2018-10-21T13:01:29.749Z,101557.55
2018-10-21T13:03:59.918Z,101561.11
2018-10-21T13:06:29.734Z,101565.39
2018-10-21T13:09:00.767Z,101566.82
2018-10-21T13:11:35.801Z,101565.39
2018-10-21T13:14:05.907Z,101557.20
2018-10-21T13:16:35.725Z,101557.67
2018-10-21T13:19:06.801Z,101555.52
2018-10-21T13:21:36.916Z,101552.80
2018-10-21T13:24:06.834Z,101545.03
2018-10-21T13:26:36.699Z,101546.41
2018-10-21T13:29:08.266Z,101543.33
2018-10-21T13:31:38.333Z,101539.64
2018-10-21T13:34:08.863Z,101547.12
2018-10-21T13:36:38.981Z,101525.62
2018-10-21T13:39:12.480Z,101545.75
2018-10-21T13:41:44.829Z,101544.16
2018-10-21T13:44:14.868Z,101541.75
2018-10-21T13:46:44.723Z,101543.83
2018-10-21T13:49:15.898Z,101539.51
2018-10-21T13:51:45.972Z,101542.52
2018-10-21T13:54:16.083Z,101541.70
2018-10-21T13:56:45.984Z,101538.70
2018-10-21T13:59:15.930Z,101532.55
2018-10-21T14:01:45.939Z,101531.27
2018-10-21T14:04:15.826Z,101535.33
2018-10-21T14:06:45.866Z,101539.49
2018-10-21T14:09:16.008Z,101533.14
2018-10-21T14:11:45.810Z,101541.52
2018-10-21T14:14:19.936Z,101539.51
2018-10-21T14:16:49.704Z,101540.10
2018-10-21T14:19:22.519Z,101536.67
2018-10-21T14:21:54.557Z,101532.13
2018-10-21T14:24:27.193Z,101537.64
2018-10-21T14:26:58.308Z,101532.61
2018-10-21T14:29:28.239Z,101533.69
2018-10-21T14:31:58.099Z,101536.11
2018-10-21T14:34:28.049Z,101536.45
2018-10-21T14:36:58.161Z,101533.08
2018-10-21T14:39:27.954Z,101538.53
2018-10-21T14:42:02.192Z,101539.39
2018-10-21T14:44:33.296Z,101534.20
2018-10-21T14:47:03.406Z,101546.03
2018-10-21T14:49:39.545Z,101531.83
2018-10-21T14:52:10.475Z,101528.66
2018-10-21T14:54:42.321Z,101533.37
2018-10-21T14:57:14.653Z,101533.02
2018-10-21T14:59:45.004Z,101534.81
2018-10-21T15:02:15.017Z,101537.06
2018-10-21T15:04:45.955Z,101530.80
2018-10-21T15:07:15.898Z,101511.48
2018-10-21T15:09:45.822Z,101527.33
2018-10-21T15:12:15.934Z,101530.78
2018-10-21T15:14:46.940Z,101533.80
2018-10-21T15:17:16.761Z,101531.87
2018-10-21T15:19:49.866Z,101533.27
2018-10-21T15:22:19.762Z,101528.78
2018-10-21T15:24:54.985Z,101531.31
2018-10-21T15:27:24.894Z,101529.14
2018-10-21T15:29:54.802Z,101531.95
2018-10-21T15:32:31.428Z,101529.19
2018-10-21T15:38:12.131Z,101530.47
2018-10-21T15:43:30.185Z,101529.36
2018-10-21T15:46:00.057Z,101531.78
2018-10-21T15:48:30.750Z,101531.52
2018-10-21T15:51:04.543Z,101537.32
2018-10-21T15:53:35.950Z,101539.36
2018-10-21T15:56:08.982Z,101532.37
2018-10-21T15:58:39.383Z,101537.87
2018-10-21T16:01:10.466Z,101538.55
2018-10-21T16:03:45.912Z,101537.28
2018-10-21T16:06:15.803Z,101535.88
2018-10-21T16:08:57.978Z,101538.92
2018-10-21T16:11:29.785Z,101532.91
2018-10-21T16:14:02.554Z,101535.14
2018-10-21T16:16:38.058Z,101548.44
2018-10-21T16:21:43.425Z,101555.05
2018-10-21T16:24:13.803Z,101556.16
2018-10-21T16:26:43.689Z,101558.23
2018-10-21T16:29:13.980Z,101558.63
2018-10-21T16:31:43.932Z,101561.16
2018-10-21T16:34:13.979Z,101557.30
2018-10-21T16:36:49.330Z,101565.53
2018-10-21T16:41:55.387Z,101560.94
2018-10-21T16:44:30.881Z,101563.36
2018-10-21T16:47:00.889Z,101555.84
2018-10-21T16:49:30.673Z,101561.77
2018-10-21T16:52:00.777Z,101560.92
2018-10-21T16:54:35.912Z,101566.20
2018-10-21T16:57:06.921Z,101572.11
2018-10-21T16:59:37.615Z,101568.84
2018-10-21T17:07:24.929Z,101577.10
2018-10-21T17:09:56.279Z,101575.75
2018-10-21T17:12:25.993Z,101572.37
2018-10-21T17:14:56.930Z,101570.91
2018-10-21T17:17:26.779Z,101572.56
2018-10-21T17:25:12.763Z,101578.64
2018-10-21T17:27:44.573Z,101579.69
2018-10-21T17:30:23.513Z,101574.20
2018-10-21T17:32:58.819Z,101579.34
2018-10-21T17:38:09.869Z,101579.84
2018-10-21T17:40:39.904Z,101577.42
2018-10-21T17:43:09.938Z,101583.88
2018-10-21T17:45:40.834Z,101578.62
2018-10-21T17:48:16.711Z,101583.77
2018-10-21T17:50:52.633Z,101580.33
2018-10-21T17:56:04.634Z,101579.88
2018-10-21T17:58:42.990Z,101586.92
2018-10-21T18:01:13.887Z,101582.06
2018-10-21T18:03:45.975Z,101582.86
2018-10-21T18:06:15.893Z,101577.05
2018-10-21T18:08:45.812Z,101578.44
2018-10-21T18:11:20.847Z,101574.89
2018-10-21T18:19:12.060Z,101576.00
2018-10-21T18:29:28.922Z,101575.70
2018-10-21T18:31:58.950Z,101581.30
2018-10-21T18:34:28.892Z,101582.45
2018-10-21T18:36:58.936Z,101577.22
2018-10-21T18:39:29.995Z,101581.38
2018-10-21T18:42:00.697Z,101580.84
2018-10-21T18:44:30.893Z,101579.35
2018-10-21T18:47:00.798Z,101578.81
2018-10-21T18:49:34.447Z,101578.72
2018-10-21T18:52:06.351Z,101574.97
2018-10-21T18:54:41.891Z,101576.31
2018-10-21T18:57:12.413Z,101574.91
2018-10-21T18:59:49.924Z,101578.14
2018-10-21T19:02:19.772Z,101577.14
2018-10-21T19:04:55.922Z,101576.96
2018-10-21T19:07:25.748Z,101579.02
2018-10-21T19:10:00.978Z,101580.23
2018-10-21T19:12:31.817Z,101572.72
2018-10-21T19:15:07.737Z,101576.98
2018-10-21T19:17:44.810Z,101573.68
2018-10-21T19:20:16.413Z,101583.85
2018-10-21T19:22:47.359Z,101581.41
2018-10-21T19:25:20.078Z,101582.55
2018-10-21T19:27:49.928Z,101581.98
2018-10-21T19:30:21.869Z,101580.48
2018-10-21T19:35:29.012Z,101580.23
2018-10-21T19:37:58.737Z,101580.50
2018-10-21T19:48:20.002Z,101570.62
2018-10-21T19:50:49.900Z,101579.37
2018-10-21T19:53:19.744Z,101575.80
2018-10-21T19:55:50.729Z,101580.13
2018-10-21T19:58:21.445Z,101578.99
2018-10-21T20:00:52.439Z,101581.06
2018-10-21T20:03:24.190Z,101576.16
2018-10-21T20:08:29.356Z,101566.81
2018-10-21T20:10:59.538Z,101568.42
2018-10-21T20:13:35.887Z,101562.47
2018-10-21T20:16:05.828Z,101572.17
2018-10-21T20:18:35.778Z,101570.66
2018-10-21T20:21:05.881Z,101567.03
2018-10-21T20:23:35.808Z,101566.01
2018-10-21T20:26:05.821Z,101567.32
2018-10-21T20:28:35.639Z,101572.39
2018-10-21T20:31:05.878Z,101579.22
2018-10-21T20:33:35.704Z,101575.45
2018-10-21T20:36:06.219Z,101575.73
2018-10-21T20:38:36.358Z,101572.41
2018-10-21T20:41:07.028Z,101571.66
2018-10-21T20:43:36.972Z,101568.82
2018-10-21T20:46:07.147Z,101574.26
2018-10-21T20:48:37.604Z,101577.23
2018-10-21T20:51:07.647Z,101575.34
2018-10-21T20:53:37.708Z,101568.11
2018-10-21T20:56:07.569Z,101576.55
2018-10-21T20:58:37.681Z,101566.66
2018-10-21T21:01:08.300Z,101569.08
2018-10-21T21:03:38.320Z,101564.48
2018-10-21T21:06:08.519Z,101560.60
2018-10-21T21:08:38.355Z,101572.78
2018-10-21T21:11:09.521Z,101568.24
2018-10-21T21:13:39.918Z,101564.85
2018-10-21T21:16:10.055Z,101566.34
2018-10-21T21:18:40.279Z,101567.27
2018-10-21T21:21:10.310Z,101563.05
2018-10-21T21:23:40.442Z,101561.80
2018-10-21T21:26:10.641Z,101560.56
2018-10-21T21:28:40.802Z,101559.34
2018-10-21T21:31:10.963Z,101557.72
2018-10-21T21:33:41.095Z,101553.95
2018-10-21T21:36:11.254Z,101556.30
2018-10-21T21:38:41.428Z,101551.59
2018-10-21T21:41:11.845Z,101558.33
2018-10-21T21:43:41.938Z,101563.23
2018-10-21T21:46:12.032Z,101562.57
2018-10-21T21:48:42.300Z,101557.86
2018-10-21T21:51:12.351Z,101561.48
2018-10-21T21:53:42.412Z,101557.72
2018-10-21T21:56:12.445Z,101560.99
2018-10-21T21:58:42.520Z,101558.91
2018-10-21T22:01:13.141Z,101561.70
2018-10-21T22:03:43.899Z,101563.57
2018-10-21T22:06:15.459Z,101558.93
2018-10-21T22:08:45.983Z,101560.89
2018-10-21T22:11:17.336Z,101570.69
2018-10-21T22:13:47.954Z,101560.83
2018-10-21T22:16:19.342Z,101559.30
2018-10-21T22:18:49.997Z,101550.05
2018-10-21T22:21:21.503Z,101551.30
2018-10-21T22:23:52.116Z,101551.63
2018-10-21T22:26:23.582Z,101545.77
2018-10-21T22:28:54.011Z,101545.39
2018-10-21T22:31:25.465Z,101544.75
2018-10-21T22:33:56.578Z,101536.20
2018-10-21T22:36:27.224Z,101536.27
2018-10-21T22:38:57.860Z,101540.75
2018-10-21T22:41:29.441Z,101531.50
2018-10-21T22:43:59.938Z,101532.05
2018-10-21T22:46:31.431Z,101527.66
2018-10-21T22:49:02.086Z,101536.99
2018-10-21T22:51:33.473Z,101540.16
2018-10-21T22:54:04.048Z,101538.46
2018-10-21T22:56:35.025Z,101536.47
2018-10-21T22:59:06.293Z,101530.52
2018-10-21T23:01:36.990Z,101532.85
2018-10-21T23:04:08.352Z,101533.30
2018-10-21T23:06:39.427Z,101543.78
2018-10-21T23:09:11.734Z,101533.84
2018-10-21T23:11:42.324Z,101533.06
2018-10-21T23:14:12.797Z,101534.09
2018-10-21T23:16:43.674Z,101521.58
2018-10-21T23:19:24.618Z,101525.61
2018-10-21T23:21:54.988Z,101498.59
2018-10-21T23:24:25.025Z,101518.19
2018-10-21T23:26:55.089Z,101520.04
2018-10-21T23:29:25.121Z,101514.89
2018-10-21T23:31:55.129Z,101498.37
2018-10-21T23:34:25.742Z,101514.17
2018-10-21T23:36:56.215Z,101508.55
2018-10-21T23:39:27.083Z,101507.39
2018-10-21T23:41:57.426Z,101509.78
2018-10-21T23:44:27.781Z,101504.69
2018-10-21T23:46:57.856Z,101481.72
2018-10-21T23:49:28.122Z,101501.00
2018-10-21T23:51:58.166Z,101467.68
2018-10-21T23:54:28.348Z,101483.87
2018-10-21T23:56:59.117Z,101495.13
2018-10-21T23:59:30.170Z,101492.30
